sensor_id;sensor_type;location;lat;lon;timestamp;temperature;humidity
10538;DHT22;5317;49.048;8.468;2023-08-07T00:01:48;17.30;84.40
10538;DHT22;5317;49.048;8.468;2023-08-07T00:04:15;17.30;84.40
10538;DHT22;5317;49.048;8.468;2023-08-07T00:06:42;17.40;84.20
10538;DHT22;5317;49.048;8.468;2023-08-07T00:09:10;17.30;83.90
10538;DHT22;5317;49.048;8.468;2023-08-07T00:11:37;17.20;83.50
10538;DHT22;5317;49.048;8.468;2023-08-07T00:14:04;17.20;83.70
10538;DHT22;5317;49.048;8.468;2023-08-07T00:16:30;17.20;83.50
10538;DHT22;5317;49.048;8.468;2023-08-07T00:18:57;17.20;83.30
10538;DHT22;5317;49.048;8.468;2023-08-07T00:21:24;17.20;83.10
10538;DHT22;5317;49.048;8.468;2023-08-07T00:23:51;17.20;83.40
10538;DHT22;5317;49.048;8.468;2023-08-07T00:26:19;17.30;83.20
10538;DHT22;5317;49.048;8.468;2023-08-07T00:28:46;17.20;82.70
10538;DHT22;5317;49.048;8.468;2023-08-07T00:31:13;17.20;82.70
10538;DHT22;5317;49.048;8.468;2023-08-07T00:33:39;17.20;82.50
10538;DHT22;5317;49.048;8.468;2023-08-07T00:36:07;17.20;81.60
10538;DHT22;5317;49.048;8.468;2023-08-07T00:38:34;17.20;82.00
10538;DHT22;5317;49.048;8.468;2023-08-07T00:41:00;17.30;81.60
10538;DHT22;5317;49.048;8.468;2023-08-07T00:43:29;17.30;81.50
10538;DHT22;5317;49.048;8.468;2023-08-07T00:45:55;17.30;81.60
10538;DHT22;5317;49.048;8.468;2023-08-07T00:48:23;17.30;82.40
10538;DHT22;5317;49.048;8.468;2023-08-07T00:50:51;17.30;81.40
10538;DHT22;5317;49.048;8.468;2023-08-07T00:53:18;17.20;81.40
10538;DHT22;5317;49.048;8.468;2023-08-07T00:55:46;17.20;82.30
10538;DHT22;5317;49.048;8.468;2023-08-07T00:58:13;17.20;81.10
10538;DHT22;5317;49.048;8.468;2023-08-07T01:00:41;17.20;81.40
10538;DHT22;5317;49.048;8.468;2023-08-07T01:03:08;17.20;81.10
10538;DHT22;5317;49.048;8.468;2023-08-07T01:05:38;17.30;81.20
10538;DHT22;5317;49.048;8.468;2023-08-07T01:08:05;17.30;80.70
10538;DHT22;5317;49.048;8.468;2023-08-07T01:10:39;17.20;80.20
10538;DHT22;5317;49.048;8.468;2023-08-07T01:13:17;17.10;80.50
10538;DHT22;5317;49.048;8.468;2023-08-07T01:15:49;17.20;81.00
10538;DHT22;5317;49.048;8.468;2023-08-07T01:18:21;17.20;80.40
10538;DHT22;5317;49.048;8.468;2023-08-07T01:20:48;17.20;80.10
10538;DHT22;5317;49.048;8.468;2023-08-07T01:23:16;17.30;80.20
10538;DHT22;5317;49.048;8.468;2023-08-07T01:25:43;17.30;79.70
10538;DHT22;5317;49.048;8.468;2023-08-07T01:28:16;17.30;79.60
10538;DHT22;5317;49.048;8.468;2023-08-07T01:30:47;17.30;79.30
10538;DHT22;5317;49.048;8.468;2023-08-07T01:33:21;17.30;79.30
10538;DHT22;5317;49.048;8.468;2023-08-07T01:35:53;17.30;78.70
10538;DHT22;5317;49.048;8.468;2023-08-07T01:38:24;17.30;79.00
10538;DHT22;5317;49.048;8.468;2023-08-07T01:40:52;17.20;79.20
10538;DHT22;5317;49.048;8.468;2023-08-07T01:43:20;17.20;79.20
10538;DHT22;5317;49.048;8.468;2023-08-07T01:45:46;17.20;79.50
10538;DHT22;5317;49.048;8.468;2023-08-07T01:48:13;17.20;79.70
10538;DHT22;5317;49.048;8.468;2023-08-07T01:50:40;17.20;79.80
10538;DHT22;5317;49.048;8.468;2023-08-07T01:53:07;17.20;79.40
10538;DHT22;5317;49.048;8.468;2023-08-07T01:55:35;17.20;79.60
10538;DHT22;5317;49.048;8.468;2023-08-07T01:58:02;17.20;79.80
10538;DHT22;5317;49.048;8.468;2023-08-07T02:00:29;17.30;79.70
10538;DHT22;5317;49.048;8.468;2023-08-07T02:02:57;17.20;79.70
10538;DHT22;5317;49.048;8.468;2023-08-07T02:05:24;17.20;79.50
10538;DHT22;5317;49.048;8.468;2023-08-07T02:07:50;17.30;79.50
10538;DHT22;5317;49.048;8.468;2023-08-07T02:10:17;17.20;79.30
10538;DHT22;5317;49.048;8.468;2023-08-07T02:12:45;17.30;78.90
10538;DHT22;5317;49.048;8.468;2023-08-07T02:15:12;17.20;78.70
10538;DHT22;5317;49.048;8.468;2023-08-07T02:17:39;17.20;78.70
10538;DHT22;5317;49.048;8.468;2023-08-07T02:20:07;17.20;78.60
10538;DHT22;5317;49.048;8.468;2023-08-07T02:22:34;17.30;78.90
10538;DHT22;5317;49.048;8.468;2023-08-07T02:25:01;17.30;78.50
10538;DHT22;5317;49.048;8.468;2023-08-07T02:27:28;17.40;78.70
10538;DHT22;5317;49.048;8.468;2023-08-07T02:29:56;17.30;78.30
10538;DHT22;5317;49.048;8.468;2023-08-07T02:32:23;17.10;78.80
10538;DHT22;5317;49.048;8.468;2023-08-07T02:34:50;17.00;80.50
10538;DHT22;5317;49.048;8.468;2023-08-07T02:37:16;17.00;79.70
10538;DHT22;5317;49.048;8.468;2023-08-07T02:39:44;17.00;79.90
10538;DHT22;5317;49.048;8.468;2023-08-07T02:42:11;17.00;79.90
10538;DHT22;5317;49.048;8.468;2023-08-07T02:44:38;17.00;79.90
10538;DHT22;5317;49.048;8.468;2023-08-07T02:47:06;16.90;80.10
10538;DHT22;5317;49.048;8.468;2023-08-07T02:49:33;16.90;80.00
10538;DHT22;5317;49.048;8.468;2023-08-07T02:52:00;16.90;80.40
10538;DHT22;5317;49.048;8.468;2023-08-07T02:54:26;16.90;80.40
10538;DHT22;5317;49.048;8.468;2023-08-07T02:56:53;16.90;80.60
10538;DHT22;5317;49.048;8.468;2023-08-07T02:59:20;16.90;80.50
10538;DHT22;5317;49.048;8.468;2023-08-07T03:01:47;16.90;80.50
10538;DHT22;5317;49.048;8.468;2023-08-07T03:04:15;16.80;80.40
10538;DHT22;5317;49.048;8.468;2023-08-07T03:06:42;16.90;80.70
10538;DHT22;5317;49.048;8.468;2023-08-07T03:09:09;17.00;81.40
10538;DHT22;5317;49.048;8.468;2023-08-07T03:11:36;17.00;80.50
10538;DHT22;5317;49.048;8.468;2023-08-07T03:14:02;17.00;80.60
10538;DHT22;5317;49.048;8.468;2023-08-07T03:16:29;17.00;80.90
10538;DHT22;5317;49.048;8.468;2023-08-07T03:18:56;16.90;80.90
10538;DHT22;5317;49.048;8.468;2023-08-07T03:21:25;16.70;81.20
10538;DHT22;5317;49.048;8.468;2023-08-07T03:23:53;16.70;81.70
10538;DHT22;5317;49.048;8.468;2023-08-07T03:26:20;16.60;81.80
10538;DHT22;5317;49.048;8.468;2023-08-07T03:28:46;16.70;82.30
10538;DHT22;5317;49.048;8.468;2023-08-07T03:31:14;16.70;82.00
10538;DHT22;5317;49.048;8.468;2023-08-07T03:33:41;16.70;81.80
10538;DHT22;5317;49.048;8.468;2023-08-07T03:36:08;16.70;82.00
10538;DHT22;5317;49.048;8.468;2023-08-07T03:38:37;16.60;82.20
10538;DHT22;5317;49.048;8.468;2023-08-07T03:41:03;16.50;82.50
10538;DHT22;5317;49.048;8.468;2023-08-07T03:43:30;16.60;82.70
10538;DHT22;5317;49.048;8.468;2023-08-07T03:45:57;16.60;82.50
10538;DHT22;5317;49.048;8.468;2023-08-07T03:48:24;16.60;82.60
10538;DHT22;5317;49.048;8.468;2023-08-07T03:50:52;16.60;82.70
10538;DHT22;5317;49.048;8.468;2023-08-07T03:53:19;16.50;82.70
10538;DHT22;5317;49.048;8.468;2023-08-07T03:55:50;16.40;83.10
10538;DHT22;5317;49.048;8.468;2023-08-07T03:58:17;16.40;83.10
10538;DHT22;5317;49.048;8.468;2023-08-07T04:00:44;16.50;83.10
10538;DHT22;5317;49.048;8.468;2023-08-07T04:03:11;16.50;83.00
10538;DHT22;5317;49.048;8.468;2023-08-07T04:05:38;16.40;83.10
10538;DHT22;5317;49.048;8.468;2023-08-07T04:08:05;16.40;83.20
10538;DHT22;5317;49.048;8.468;2023-08-07T04:10:31;16.40;83.10
10538;DHT22;5317;49.048;8.468;2023-08-07T04:13:00;16.40;83.20
10538;DHT22;5317;49.048;8.468;2023-08-07T04:15:26;16.30;83.50
10538;DHT22;5317;49.048;8.468;2023-08-07T04:17:53;16.30;83.70
10538;DHT22;5317;49.048;8.468;2023-08-07T04:20:20;16.20;83.80
10538;DHT22;5317;49.048;8.468;2023-08-07T04:22:47;16.20;83.80
10538;DHT22;5317;49.048;8.468;2023-08-07T04:25:14;16.20;83.70
10538;DHT22;5317;49.048;8.468;2023-08-07T04:27:40;16.30;83.80
10538;DHT22;5317;49.048;8.468;2023-08-07T04:30:10;16.30;83.70
10538;DHT22;5317;49.048;8.468;2023-08-07T04:32:37;16.20;83.90
10538;DHT22;5317;49.048;8.468;2023-08-07T04:35:05;16.20;83.80
10538;DHT22;5317;49.048;8.468;2023-08-07T04:37:32;16.30;83.80
10538;DHT22;5317;49.048;8.468;2023-08-07T04:39:59;16.40;83.60
10538;DHT22;5317;49.048;8.468;2023-08-07T04:42:26;16.30;83.60
10538;DHT22;5317;49.048;8.468;2023-08-07T04:44:53;16.40;83.70
10538;DHT22;5317;49.048;8.468;2023-08-07T04:47:22;16.30;83.50
10538;DHT22;5317;49.048;8.468;2023-08-07T04:49:48;16.40;83.70
10538;DHT22;5317;49.048;8.468;2023-08-07T04:52:15;16.30;83.40
10538;DHT22;5317;49.048;8.468;2023-08-07T04:54:42;16.30;83.70
10538;DHT22;5317;49.048;8.468;2023-08-07T04:57:09;16.40;83.60
10538;DHT22;5317;49.048;8.468;2023-08-07T04:59:36;16.40;83.60
10538;DHT22;5317;49.048;8.468;2023-08-07T05:02:03;16.40;84.20
10538;DHT22;5317;49.048;8.468;2023-08-07T05:04:31;16.40;83.40
10538;DHT22;5317;49.048;8.468;2023-08-07T05:06:58;16.50;83.20
10538;DHT22;5317;49.048;8.468;2023-08-07T05:09:24;16.40;83.10
10538;DHT22;5317;49.048;8.468;2023-08-07T05:11:51;16.30;83.30
10538;DHT22;5317;49.048;8.468;2023-08-07T05:14:18;16.40;83.20
10538;DHT22;5317;49.048;8.468;2023-08-07T05:16:45;16.40;83.00
10538;DHT22;5317;49.048;8.468;2023-08-07T05:19:12;16.50;83.00
10538;DHT22;5317;49.048;8.468;2023-08-07T05:21:40;16.50;82.90
10538;DHT22;5317;49.048;8.468;2023-08-07T05:24:07;16.50;82.60
10538;DHT22;5317;49.048;8.468;2023-08-07T05:26:34;16.50;82.60
10538;DHT22;5317;49.048;8.468;2023-08-07T05:29:01;16.70;82.50
10538;DHT22;5317;49.048;8.468;2023-08-07T05:31:28;16.90;82.10
10538;DHT22;5317;49.048;8.468;2023-08-07T05:33:56;16.90;81.70
10538;DHT22;5317;49.048;8.468;2023-08-07T05:36:23;16.90;81.70
10538;DHT22;5317;49.048;8.468;2023-08-07T05:38:51;16.90;81.50
10538;DHT22;5317;49.048;8.468;2023-08-07T05:41:18;16.90;81.40
10538;DHT22;5317;49.048;8.468;2023-08-07T05:43:45;16.90;81.60
10538;DHT22;5317;49.048;8.468;2023-08-07T05:46:12;16.90;81.50
10538;DHT22;5317;49.048;8.468;2023-08-07T05:48:39;16.90;81.70
10538;DHT22;5317;49.048;8.468;2023-08-07T05:51:06;16.80;81.60
10538;DHT22;5317;49.048;8.468;2023-08-07T05:53:34;16.90;81.90
10538;DHT22;5317;49.048;8.468;2023-08-07T05:56:02;17.00;81.60
10538;DHT22;5317;49.048;8.468;2023-08-07T05:58:29;16.80;81.70
10538;DHT22;5317;49.048;8.468;2023-08-07T06:00:56;16.90;81.90
10538;DHT22;5317;49.048;8.468;2023-08-07T06:03:23;16.90;81.90
10538;DHT22;5317;49.048;8.468;2023-08-07T06:05:50;16.90;82.30
10538;DHT22;5317;49.048;8.468;2023-08-07T06:08:16;16.90;82.00
10538;DHT22;5317;49.048;8.468;2023-08-07T06:10:43;16.90;81.90
10538;DHT22;5317;49.048;8.468;2023-08-07T06:13:11;17.00;81.80
10538;DHT22;5317;49.048;8.468;2023-08-07T06:15:38;17.10;81.90
10538;DHT22;5317;49.048;8.468;2023-08-07T06:18:05;17.10;81.40
10538;DHT22;5317;49.048;8.468;2023-08-07T06:20:33;17.10;81.20
10538;DHT22;5317;49.048;8.468;2023-08-07T06:23:00;17.00;81.50
10538;DHT22;5317;49.048;8.468;2023-08-07T06:25:27;17.00;81.90
10538;DHT22;5317;49.048;8.468;2023-08-07T06:27:54;17.10;81.70
10538;DHT22;5317;49.048;8.468;2023-08-07T06:30:22;17.00;81.80
10538;DHT22;5317;49.048;8.468;2023-08-07T06:32:49;17.10;81.60
10538;DHT22;5317;49.048;8.468;2023-08-07T06:35:16;17.20;82.10
10538;DHT22;5317;49.048;8.468;2023-08-07T06:37:43;17.30;81.40
10538;DHT22;5317;49.048;8.468;2023-08-07T06:40:10;17.30;80.30
10538;DHT22;5317;49.048;8.468;2023-08-07T06:42:37;17.30;80.20
10538;DHT22;5317;49.048;8.468;2023-08-07T06:45:06;17.30;80.10
10538;DHT22;5317;49.048;8.468;2023-08-07T06:47:34;17.30;80.20
10538;DHT22;5317;49.048;8.468;2023-08-07T06:50:01;17.30;79.90
10538;DHT22;5317;49.048;8.468;2023-08-07T06:52:28;17.30;80.20
10538;DHT22;5317;49.048;8.468;2023-08-07T06:54:54;17.30;80.10
10538;DHT22;5317;49.048;8.468;2023-08-07T06:57:21;17.40;80.00
10538;DHT22;5317;49.048;8.468;2023-08-07T06:59:48;17.50;80.10
10538;DHT22;5317;49.048;8.468;2023-08-07T07:02:15;17.50;80.10
10538;DHT22;5317;49.048;8.468;2023-08-07T07:04:43;17.60;80.00
10538;DHT22;5317;49.048;8.468;2023-08-07T07:07:10;17.50;80.10
10538;DHT22;5317;49.048;8.468;2023-08-07T07:09:37;17.60;80.60
10538;DHT22;5317;49.048;8.468;2023-08-07T07:12:04;17.70;80.60
10538;DHT22;5317;49.048;8.468;2023-08-07T07:14:32;17.80;80.40
10538;DHT22;5317;49.048;8.468;2023-08-07T07:16:59;17.80;80.30
10538;DHT22;5317;49.048;8.468;2023-08-07T07:19:26;17.80;79.60
10538;DHT22;5317;49.048;8.468;2023-08-07T07:21:54;17.90;80.00
10538;DHT22;5317;49.048;8.468;2023-08-07T07:24:21;18.00;79.50
10538;DHT22;5317;49.048;8.468;2023-08-07T07:26:48;18.10;79.20
10538;DHT22;5317;49.048;8.468;2023-08-07T07:29:16;18.20;79.10
10538;DHT22;5317;49.048;8.468;2023-08-07T07:31:43;18.50;78.40
10538;DHT22;5317;49.048;8.468;2023-08-07T07:34:09;18.60;77.60
10538;DHT22;5317;49.048;8.468;2023-08-07T07:36:36;18.50;75.60
10538;DHT22;5317;49.048;8.468;2023-08-07T07:39:04;18.50;75.50
10538;DHT22;5317;49.048;8.468;2023-08-07T07:41:31;18.40;75.70
10538;DHT22;5317;49.048;8.468;2023-08-07T07:43:58;18.40;76.00
10538;DHT22;5317;49.048;8.468;2023-08-07T07:46:27;18.40;76.00
10538;DHT22;5317;49.048;8.468;2023-08-07T07:48:54;18.40;75.90
10538;DHT22;5317;49.048;8.468;2023-08-07T07:51:22;18.50;74.20
10538;DHT22;5317;49.048;8.468;2023-08-07T07:53:49;18.40;72.80
10538;DHT22;5317;49.048;8.468;2023-08-07T07:56:17;18.40;73.50
10538;DHT22;5317;49.048;8.468;2023-08-07T07:58:44;18.30;73.80
10538;DHT22;5317;49.048;8.468;2023-08-07T08:01:11;18.40;73.80
10538;DHT22;5317;49.048;8.468;2023-08-07T08:03:38;18.40;73.70
10538;DHT22;5317;49.048;8.468;2023-08-07T08:06:05;18.30;73.90
10538;DHT22;5317;49.048;8.468;2023-08-07T08:08:32;18.40;73.80
10538;DHT22;5317;49.048;8.468;2023-08-07T08:10:59;18.50;73.60
10538;DHT22;5317;49.048;8.468;2023-08-07T08:13:27;18.60;72.80
10538;DHT22;5317;49.048;8.468;2023-08-07T08:15:54;18.70;72.30
10538;DHT22;5317;49.048;8.468;2023-08-07T08:18:21;18.60;72.60
10538;DHT22;5317;49.048;8.468;2023-08-07T08:20:48;18.70;71.40
10538;DHT22;5317;49.048;8.468;2023-08-07T08:23:15;18.60;71.30
10538;DHT22;5317;49.048;8.468;2023-08-07T08:25:41;18.60;71.30
10538;DHT22;5317;49.048;8.468;2023-08-07T08:28:08;18.70;71.40
10538;DHT22;5317;49.048;8.468;2023-08-07T08:30:36;18.80;71.50
10538;DHT22;5317;49.048;8.468;2023-08-07T08:33:03;18.90;70.50
10538;DHT22;5317;49.048;8.468;2023-08-07T08:35:31;19.00;70.40
10538;DHT22;5317;49.048;8.468;2023-08-07T08:37:58;19.00;70.60
10538;DHT22;5317;49.048;8.468;2023-08-07T08:40:25;19.10;69.20
10538;DHT22;5317;49.048;8.468;2023-08-07T08:42:54;19.20;70.10
10538;DHT22;5317;49.048;8.468;2023-08-07T08:45:25;19.20;69.10
10538;DHT22;5317;49.048;8.468;2023-08-07T08:47:55;19.20;69.20
10538;DHT22;5317;49.048;8.468;2023-08-07T08:50:26;19.30;69.40
10538;DHT22;5317;49.048;8.468;2023-08-07T08:52:53;19.40;68.30
10538;DHT22;5317;49.048;8.468;2023-08-07T08:55:22;19.40;67.60
10538;DHT22;5317;49.048;8.468;2023-08-07T08:57:50;19.60;68.50
10538;DHT22;5317;49.048;8.468;2023-08-07T09:00:17;19.80;68.80
10538;DHT22;5317;49.048;8.468;2023-08-07T09:02:47;19.90;66.00
10538;DHT22;5317;49.048;8.468;2023-08-07T09:05:17;19.90;67.20
10538;DHT22;5317;49.048;8.468;2023-08-07T09:07:44;20.00;65.30
10538;DHT22;5317;49.048;8.468;2023-08-07T09:10:12;19.90;64.70
10538;DHT22;5317;49.048;8.468;2023-08-07T09:12:41;20.00;65.90
10538;DHT22;5317;49.048;8.468;2023-08-07T09:15:11;20.10;65.50
10538;DHT22;5317;49.048;8.468;2023-08-07T09:17:42;20.00;63.30
10538;DHT22;5317;49.048;8.468;2023-08-07T09:20:11;20.00;64.00
10538;DHT22;5317;49.048;8.468;2023-08-07T09:22:42;20.10;65.00
10538;DHT22;5317;49.048;8.468;2023-08-07T09:25:09;20.30;65.10
10538;DHT22;5317;49.048;8.468;2023-08-07T09:27:37;20.50;65.20
10538;DHT22;5317;49.048;8.468;2023-08-07T09:30:06;20.60;62.90
10538;DHT22;5317;49.048;8.468;2023-08-07T09:32:35;20.50;61.80
10538;DHT22;5317;49.048;8.468;2023-08-07T09:35:02;20.60;62.80
10538;DHT22;5317;49.048;8.468;2023-08-07T09:37:30;20.70;63.80
10538;DHT22;5317;49.048;8.468;2023-08-07T09:40:01;20.80;62.30
10538;DHT22;5317;49.048;8.468;2023-08-07T09:42:31;20.90;61.70
10538;DHT22;5317;49.048;8.468;2023-08-07T09:45:00;21.00;60.70
10538;DHT22;5317;49.048;8.468;2023-08-07T09:47:27;21.10;60.30
10538;DHT22;5317;49.048;8.468;2023-08-07T09:49:55;21.10;60.30
10538;DHT22;5317;49.048;8.468;2023-08-07T09:52:24;21.20;60.00
10538;DHT22;5317;49.048;8.468;2023-08-07T09:54:55;21.40;60.50
10538;DHT22;5317;49.048;8.468;2023-08-07T09:57:26;21.60;61.10
10538;DHT22;5317;49.048;8.468;2023-08-07T09:59:54;21.80;59.60
10538;DHT22;5317;49.048;8.468;2023-08-07T10:02:21;21.80;59.30
10538;DHT22;5317;49.048;8.468;2023-08-07T10:04:50;21.90;59.20
10538;DHT22;5317;49.048;8.468;2023-08-07T10:07:17;21.70;56.90
10538;DHT22;5317;49.048;8.468;2023-08-07T10:09:44;21.70;58.80
10538;DHT22;5317;49.048;8.468;2023-08-07T10:12:13;21.70;58.10
10538;DHT22;5317;49.048;8.468;2023-08-07T10:14:42;21.50;58.10
10538;DHT22;5317;49.048;8.468;2023-08-07T10:17:09;21.60;57.90
10538;DHT22;5317;49.048;8.468;2023-08-07T10:19:37;21.70;58.10
10538;DHT22;5317;49.048;8.468;2023-08-07T10:22:05;21.80;57.60
10538;DHT22;5317;49.048;8.468;2023-08-07T10:24:34;21.90;57.70
10538;DHT22;5317;49.048;8.468;2023-08-07T10:27:02;22.00;57.50
10538;DHT22;5317;49.048;8.468;2023-08-07T10:29:30;22.00;57.70
10538;DHT22;5317;49.048;8.468;2023-08-07T10:32:01;22.10;57.10
10538;DHT22;5317;49.048;8.468;2023-08-07T10:34:29;22.20;57.60
10538;DHT22;5317;49.048;8.468;2023-08-07T10:36:56;22.10;56.50
10538;DHT22;5317;49.048;8.468;2023-08-07T10:39:23;22.10;56.40
10538;DHT22;5317;49.048;8.468;2023-08-07T10:41:53;22.00;56.00
10538;DHT22;5317;49.048;8.468;2023-08-07T10:44:22;22.00;56.60
10538;DHT22;5317;49.048;8.468;2023-08-07T10:46:51;22.00;56.90
10538;DHT22;5317;49.048;8.468;2023-08-07T10:49:33;21.90;56.80
10538;DHT22;5317;49.048;8.468;2023-08-07T10:52:08;21.80;57.00
10538;DHT22;5317;49.048;8.468;2023-08-07T10:54:39;21.80;56.30
10538;DHT22;5317;49.048;8.468;2023-08-07T10:57:13;21.80;57.70
10538;DHT22;5317;49.048;8.468;2023-08-07T10:59:44;21.80;58.90
10538;DHT22;5317;49.048;8.468;2023-08-07T11:02:23;21.60;57.70
10538;DHT22;5317;49.048;8.468;2023-08-07T11:04:53;21.50;59.50
10538;DHT22;5317;49.048;8.468;2023-08-07T11:07:25;21.50;58.70
10538;DHT22;5317;49.048;8.468;2023-08-07T11:09:53;21.50;59.50
10538;DHT22;5317;49.048;8.468;2023-08-07T11:12:20;21.30;59.40
10538;DHT22;5317;49.048;8.468;2023-08-07T11:14:47;21.40;60.50
10538;DHT22;5317;49.048;8.468;2023-08-07T11:17:14;21.50;61.90
10538;DHT22;5317;49.048;8.468;2023-08-07T11:19:41;21.60;61.00
10538;DHT22;5317;49.048;8.468;2023-08-07T11:22:10;21.60;60.70
10538;DHT22;5317;49.048;8.468;2023-08-07T11:24:37;21.60;61.10
10538;DHT22;5317;49.048;8.468;2023-08-07T11:27:05;21.50;59.80
10538;DHT22;5317;49.048;8.468;2023-08-07T11:29:34;21.30;58.60
10538;DHT22;5317;49.048;8.468;2023-08-07T11:32:00;21.10;58.40
10538;DHT22;5317;49.048;8.468;2023-08-07T11:34:28;21.00;58.70
10538;DHT22;5317;49.048;8.468;2023-08-07T11:36:55;21.00;57.50
10538;DHT22;5317;49.048;8.468;2023-08-07T11:39:24;21.00;58.60
10538;DHT22;5317;49.048;8.468;2023-08-07T11:41:51;21.10;58.90
10538;DHT22;5317;49.048;8.468;2023-08-07T11:44:19;21.20;59.10
10538;DHT22;5317;49.048;8.468;2023-08-07T11:46:45;21.30;59.40
10538;DHT22;5317;49.048;8.468;2023-08-07T11:49:12;21.40;61.20
10538;DHT22;5317;49.048;8.468;2023-08-07T11:51:40;21.50;62.10
10538;DHT22;5317;49.048;8.468;2023-08-07T11:54:13;21.60;62.60
10538;DHT22;5317;49.048;8.468;2023-08-07T11:56:42;21.70;62.90
10538;DHT22;5317;49.048;8.468;2023-08-07T11:59:09;21.70;59.60
10538;DHT22;5317;49.048;8.468;2023-08-07T12:01:38;21.60;60.20
10538;DHT22;5317;49.048;8.468;2023-08-07T12:04:09;21.70;61.10
10538;DHT22;5317;49.048;8.468;2023-08-07T12:06:36;21.70;59.60
10538;DHT22;5317;49.048;8.468;2023-08-07T12:09:05;21.60;58.80
10538;DHT22;5317;49.048;8.468;2023-08-07T12:11:37;21.80;59.90
10538;DHT22;5317;49.048;8.468;2023-08-07T12:14:06;22.00;58.10
10538;DHT22;5317;49.048;8.468;2023-08-07T12:16:33;22.00;58.30
10538;DHT22;5317;49.048;8.468;2023-08-07T12:19:01;22.10;57.30
10538;DHT22;5317;49.048;8.468;2023-08-07T12:21:29;22.20;57.80
10538;DHT22;5317;49.048;8.468;2023-08-07T12:23:59;22.30;57.40
10538;DHT22;5317;49.048;8.468;2023-08-07T12:26:26;22.40;56.00
10538;DHT22;5317;49.048;8.468;2023-08-07T12:28:53;22.60;55.30
10538;DHT22;5317;49.048;8.468;2023-08-07T12:31:21;22.70;55.60
10538;DHT22;5317;49.048;8.468;2023-08-07T12:33:48;22.90;56.20
10538;DHT22;5317;49.048;8.468;2023-08-07T12:36:15;22.90;55.50
10538;DHT22;5317;49.048;8.468;2023-08-07T12:38:42;23.00;54.60
10538;DHT22;5317;49.048;8.468;2023-08-07T12:41:09;22.90;54.50
10538;DHT22;5317;49.048;8.468;2023-08-07T12:43:36;22.90;54.20
10538;DHT22;5317;49.048;8.468;2023-08-07T12:46:03;23.00;54.80
10538;DHT22;5317;49.048;8.468;2023-08-07T12:48:31;23.10;54.80
10538;DHT22;5317;49.048;8.468;2023-08-07T12:50:58;23.30;57.00
10538;DHT22;5317;49.048;8.468;2023-08-07T12:53:25;23.30;54.60
10538;DHT22;5317;49.048;8.468;2023-08-07T12:55:52;23.30;56.00
10538;DHT22;5317;49.048;8.468;2023-08-07T12:58:18;23.40;55.50
10538;DHT22;5317;49.048;8.468;2023-08-07T13:00:51;23.60;56.20
10538;DHT22;5317;49.048;8.468;2023-08-07T13:03:17;23.80;54.90
10538;DHT22;5317;49.048;8.468;2023-08-07T13:05:45;23.80;53.70
10538;DHT22;5317;49.048;8.468;2023-08-07T13:08:12;24.00;54.10
10538;DHT22;5317;49.048;8.468;2023-08-07T13:10:39;24.00;52.80
10538;DHT22;5317;49.048;8.468;2023-08-07T13:13:06;23.80;51.70
10538;DHT22;5317;49.048;8.468;2023-08-07T13:15:33;23.60;52.00
10538;DHT22;5317;49.048;8.468;2023-08-07T13:18:00;23.40;52.30
10538;DHT22;5317;49.048;8.468;2023-08-07T13:20:27;23.30;51.70
10538;DHT22;5317;49.048;8.468;2023-08-07T13:23:00;23.20;51.70
10538;DHT22;5317;49.048;8.468;2023-08-07T13:25:27;23.20;52.60
10538;DHT22;5317;49.048;8.468;2023-08-07T13:27:54;23.30;51.90
10538;DHT22;5317;49.048;8.468;2023-08-07T13:30:21;23.30;51.80
10538;DHT22;5317;49.048;8.468;2023-08-07T13:32:48;23.20;51.70
10538;DHT22;5317;49.048;8.468;2023-08-07T13:35:15;23.40;52.60
10538;DHT22;5317;49.048;8.468;2023-08-07T13:37:42;23.50;53.40
10538;DHT22;5317;49.048;8.468;2023-08-07T13:40:11;23.70;52.10
10538;DHT22;5317;49.048;8.468;2023-08-07T13:42:39;24.00;51.80
10538;DHT22;5317;49.048;8.468;2023-08-07T13:45:07;24.20;51.10
10538;DHT22;5317;49.048;8.468;2023-08-07T13:47:35;24.10;51.00
10538;DHT22;5317;49.048;8.468;2023-08-07T13:50:03;24.10;50.60
10538;DHT22;5317;49.048;8.468;2023-08-07T13:52:32;24.00;50.60
10538;DHT22;5317;49.048;8.468;2023-08-07T13:54:59;23.90;50.90
10538;DHT22;5317;49.048;8.468;2023-08-07T13:57:27;23.80;51.30
10538;DHT22;5317;49.048;8.468;2023-08-07T13:59:54;23.70;51.60
10538;DHT22;5317;49.048;8.468;2023-08-07T14:02:21;23.60;51.90
10538;DHT22;5317;49.048;8.468;2023-08-07T14:04:48;23.50;52.90
10538;DHT22;5317;49.048;8.468;2023-08-07T14:07:15;23.40;52.80
10538;DHT22;5317;49.048;8.468;2023-08-07T14:09:42;23.30;53.10
10538;DHT22;5317;49.048;8.468;2023-08-07T14:12:09;23.40;54.20
10538;DHT22;5317;49.048;8.468;2023-08-07T14:14:37;23.60;54.10
10538;DHT22;5317;49.048;8.468;2023-08-07T14:17:04;23.90;53.60
10538;DHT22;5317;49.048;8.468;2023-08-07T14:19:31;23.90;53.10
10538;DHT22;5317;49.048;8.468;2023-08-07T14:21:58;23.90;53.00
10538;DHT22;5317;49.048;8.468;2023-08-07T14:24:25;24.10;53.90
10538;DHT22;5317;49.048;8.468;2023-08-07T14:26:52;24.00;52.90
10538;DHT22;5317;49.048;8.468;2023-08-07T14:29:19;23.90;53.00
10538;DHT22;5317;49.048;8.468;2023-08-07T14:31:47;23.80;52.80
10538;DHT22;5317;49.048;8.468;2023-08-07T14:34:14;23.70;53.70
10538;DHT22;5317;49.048;8.468;2023-08-07T14:36:41;23.70;53.80
10538;DHT22;5317;49.048;8.468;2023-08-07T14:39:08;23.50;53.50
10538;DHT22;5317;49.048;8.468;2023-08-07T14:41:35;23.50;54.00
10538;DHT22;5317;49.048;8.468;2023-08-07T14:44:01;23.50;54.60
10538;DHT22;5317;49.048;8.468;2023-08-07T14:46:28;23.40;54.40
10538;DHT22;5317;49.048;8.468;2023-08-07T14:48:56;23.30;54.00
10538;DHT22;5317;49.048;8.468;2023-08-07T14:51:23;23.30;54.40
10538;DHT22;5317;49.048;8.468;2023-08-07T14:53:50;23.30;54.60
10538;DHT22;5317;49.048;8.468;2023-08-07T14:56:17;23.50;54.80
10538;DHT22;5317;49.048;8.468;2023-08-07T14:58:44;23.70;54.90
10538;DHT22;5317;49.048;8.468;2023-08-07T15:01:10;23.90;54.80
10538;DHT22;5317;49.048;8.468;2023-08-07T15:03:37;24.00;54.60
10538;DHT22;5317;49.048;8.468;2023-08-07T15:06:05;24.10;54.20
10538;DHT22;5317;49.048;8.468;2023-08-07T15:08:32;24.10;54.30
10538;DHT22;5317;49.048;8.468;2023-08-07T15:10:59;24.30;54.80
10538;DHT22;5317;49.048;8.468;2023-08-07T15:13:26;24.20;53.40
10538;DHT22;5317;49.048;8.468;2023-08-07T15:15:53;23.90;53.10
10538;DHT22;5317;49.048;8.468;2023-08-07T15:18:20;23.90;53.80
10538;DHT22;5317;49.048;8.468;2023-08-07T15:20:47;23.90;53.80
10538;DHT22;5317;49.048;8.468;2023-08-07T15:23:16;24.00;54.10
10538;DHT22;5317;49.048;8.468;2023-08-07T15:25:43;24.10;53.70
10538;DHT22;5317;49.048;8.468;2023-08-07T15:28:10;24.10;53.60
10538;DHT22;5317;49.048;8.468;2023-08-07T15:30:37;24.10;52.50
10538;DHT22;5317;49.048;8.468;2023-08-07T15:33:04;23.90;51.80
10538;DHT22;5317;49.048;8.468;2023-08-07T15:35:31;23.80;52.60
10538;DHT22;5317;49.048;8.468;2023-08-07T15:37:58;23.80;53.40
10538;DHT22;5317;49.048;8.468;2023-08-07T15:40:27;23.80;53.40
10538;DHT22;5317;49.048;8.468;2023-08-07T15:42:54;23.70;53.50
10538;DHT22;5317;49.048;8.468;2023-08-07T15:45:21;23.60;53.60
10538;DHT22;5317;49.048;8.468;2023-08-07T15:47:48;23.60;53.70